Flight Track Log - Related Links

Times and Time Zones

All times are in EDT time to prevent confusion due to time zone crossing. See the N897MB flight status page for this flight to view local times or setup timezone preferences in your user account.

Time Position Orientation Groundspeed Altitude Reporting Facility
EDT Latitude Longitude Course Direction KTS MPH feet Rate Location/Type
Tue 06:23:44 PM 35.2106 -80.5792 88° East 97 112 3,300  Level Atlanta Center
Tue 06:24:45 PM 35.2075 -80.5436 96° East 93 107 3,300 49 Level Atlanta Center
Tue 06:25:46 PM 35.2108 -80.5131 82° East 94 108 3,400 52 Climbing Atlanta Center
Tue 06:26:41 PM 35.2119 -80.4850 87° East 97 112 3,400  Level Atlanta Center
Tue 06:27:49 PM 35.2108 -80.4469 92° East 100 115 3,400  Level Atlanta Center
Tue 06:28:00 PM 35.2185 -80.4658 88° East  Level Estimated
Tue 06:28:50 PM 35.2078 -80.4114 96° East 103 119 3,400  Level Atlanta Center
Tue 06:29:00 PM 35.2194 -80.4249 88° East  Level Estimated
Tue 06:29:45 PM 35.2067 -80.3783 92° East 103 119 3,400  Level Atlanta Center
Tue 06:30:46 PM 35.2078 -80.3453 88° East 99 114 3,400  Level Atlanta Center
Tue 06:31:53 PM 35.2089 -80.3097 88° East 100 115 3,400  Level Atlanta Center
Tue 06:32:48 PM 35.2119 -80.2764 84° East 104 120 3,400  Level Atlanta Center
Tue 06:33:49 PM 35.2150 -80.2383 84° East 103 119 3,400 -49 Level Atlanta Center
Tue 06:34:50 PM 35.2119 -80.2053 96° East 103 119 3,300 -98 Descending Atlanta Center
Tue 06:36:00 PM 35.2131 -80.1576 88° East  Level FlightAware Approximate
Tue 06:43:00 PM 35.2214 -79.8717 87° East  Level FlightAware Approximate
Tue 06:44:00 PM 35.2229 -79.8308 87° East  Level FlightAware Approximate
Tue 06:45:00 PM 35.2244 -79.7900 87° East  Level FlightAware Approximate
Tue 06:46:00 PM 35.2258 -79.7491 87° East  Level FlightAware Approximate
Tue 06:47:00 PM 35.2273 -79.7083 88° East  Level FlightAware Approximate
Tue 06:48:00 PM 35.2287 -79.6674 88° East  Level FlightAware Approximate
Tue 06:49:00 PM 35.2301 -79.6266 88° East  Level FlightAware Approximate
Tue 06:50:00 PM 35.2315 -79.5857 88° East  Level FlightAware Approximate
Tue 06:51:00 PM 35.2329 -79.5449 88° East  Level FlightAware Approximate
Tue 06:52:00 PM 35.2333 -79.5040 90° East  Level FlightAware Approximate
Tue 06:53:00 PM 35.2333 -79.4631 90° East  Level FlightAware Approximate
Tue 06:54:00 PM 35.2333 -79.4222 90° East  Level FlightAware Approximate
Tue 06:55:00 PM 35.2333 -79.3833 90° East  Level FlightAware Approximate
Tue 06:56:00 PM 35.2380 -79.3883 90° East  Level Estimated

Login

Don't have an account? Register now (free) for customized features, flight alerts, and more!